sensor_id;sensor_type;location;lat;lon;timestamp;P1;durP1;ratioP1;P2;durP2;ratioP2
27428;SDS011;14881;48.092;11.574;2022-08-25T00:01:39;7.40;;;6.00;;
27428;SDS011;14881;48.092;11.574;2022-08-25T00:04:13;7.20;;;6.50;;
27428;SDS011;14881;48.092;11.574;2022-08-25T00:06:43;8.13;;;6.00;;
27428;SDS011;14881;48.092;11.574;2022-08-25T00:09:12;7.75;;;6.90;;
27428;SDS011;14881;48.092;11.574;2022-08-25T00:11:43;6.80;;;6.13;;
27428;SDS011;14881;48.092;11.574;2022-08-25T00:14:13;7.53;;;5.90;;
27428;SDS011;14881;48.092;11.574;2022-08-25T00:16:43;7.68;;;6.32;;
27428;SDS011;14881;48.092;11.574;2022-08-25T00:19:13;8.23;;;6.07;;
27428;SDS011;14881;48.092;11.574;2022-08-25T00:21:43;5.90;;;5.38;;
27428;SDS011;14881;48.092;11.574;2022-08-25T00:24:13;6.18;;;5.60;;
27428;SDS011;14881;48.092;11.574;2022-08-25T00:26:48;7.00;;;6.30;;
27428;SDS011;14881;48.092;11.574;2022-08-25T00:29:17;7.07;;;5.85;;
27428;SDS011;14881;48.092;11.574;2022-08-25T00:31:45;7.10;;;6.40;;
27428;SDS011;14881;48.092;11.574;2022-08-25T00:34:15;7.72;;;6.93;;
27428;SDS011;14881;48.092;11.574;2022-08-25T00:36:47;8.05;;;6.30;;
27428;SDS011;14881;48.092;11.574;2022-08-25T00:39:16;9.45;;;6.80;;
27428;SDS011;14881;48.092;11.574;2022-08-25T00:41:48;9.27;;;6.60;;
27428;SDS011;14881;48.092;11.574;2022-08-25T00:44:16;7.72;;;6.05;;
27428;SDS011;14881;48.092;11.574;2022-08-25T00:46:46;8.07;;;6.30;;
27428;SDS011;14881;48.092;11.574;2022-08-25T00:49:16;7.32;;;6.38;;
27428;SDS011;14881;48.092;11.574;2022-08-25T00:51:51;10.55;;;6.05;;
27428;SDS011;14881;48.092;11.574;2022-08-25T00:54:23;7.05;;;6.35;;
27428;SDS011;14881;48.092;11.574;2022-08-25T00:56:55;7.80;;;6.85;;
27428;SDS011;14881;48.092;11.574;2022-08-25T00:59:26;7.47;;;6.30;;
27428;SDS011;14881;48.092;11.574;2022-08-25T01:01:54;6.43;;;5.78;;
27428;SDS011;14881;48.092;11.574;2022-08-25T01:04:24;9.13;;;6.25;;
27428;SDS011;14881;48.092;11.574;2022-08-25T01:06:53;7.07;;;6.35;;
27428;SDS011;14881;48.092;11.574;2022-08-25T01:09:21;7.15;;;6.43;;
27428;SDS011;14881;48.092;11.574;2022-08-25T01:11:49;8.15;;;6.57;;
27428;SDS011;14881;48.092;11.574;2022-08-25T01:14:19;8.57;;;6.32;;
27428;SDS011;14881;48.092;11.574;2022-08-25T01:16:51;8.02;;;7.10;;
27428;SDS011;14881;48.092;11.574;2022-08-25T01:19:19;11.13;;;7.20;;
27428;SDS011;14881;48.092;11.574;2022-08-25T01:21:49;7.15;;;6.45;;
27428;SDS011;14881;48.092;11.574;2022-08-25T01:24:20;6.85;;;6.15;;
27428;SDS011;14881;48.092;11.574;2022-08-25T01:26:52;7.57;;;6.88;;
27428;SDS011;14881;48.092;11.574;2022-08-25T01:29:20;7.07;;;6.35;;
27428;SDS011;14881;48.092;11.574;2022-08-25T01:31:48;9.60;;;6.80;;
27428;SDS011;14881;48.092;11.574;2022-08-25T01:34:18;8.55;;;7.18;;
27428;SDS011;14881;48.092;11.574;2022-08-25T01:36:48;7.97;;;6.78;;
27428;SDS011;14881;48.092;11.574;2022-08-25T01:39:16;8.57;;;6.30;;
27428;SDS011;14881;48.092;11.574;2022-08-25T01:41:53;7.75;;;6.50;;
27428;SDS011;14881;48.092;11.574;2022-08-25T01:44:29;6.78;;;6.03;;
27428;SDS011;14881;48.092;11.574;2022-08-25T01:46:58;7.57;;;6.78;;
27428;SDS011;14881;48.092;11.574;2022-08-25T01:49:26;11.60;;;6.05;;
27428;SDS011;14881;48.092;11.574;2022-08-25T01:51:56;8.27;;;7.30;;
27428;SDS011;14881;48.092;11.574;2022-08-25T01:54:27;8.00;;;7.13;;
27428;SDS011;14881;48.092;11.574;2022-08-25T01:56:56;8.25;;;6.45;;
27428;SDS011;14881;48.092;11.574;2022-08-25T01:59:24;7.72;;;6.93;;
27428;SDS011;14881;48.092;11.574;2022-08-25T02:01:53;7.50;;;6.38;;
27428;SDS011;14881;48.092;11.574;2022-08-25T02:04:25;8.50;;;7.00;;
27428;SDS011;14881;48.092;11.574;2022-08-25T02:06:56;9.60;;;7.15;;
27428;SDS011;14881;48.092;11.574;2022-08-25T02:09:24;7.88;;;7.00;;
27428;SDS011;14881;48.092;11.574;2022-08-25T02:11:51;8.43;;;6.82;;
27428;SDS011;14881;48.092;11.574;2022-08-25T02:14:19;11.80;;;7.78;;
27428;SDS011;14881;48.092;11.574;2022-08-25T02:16:48;10.30;;;7.32;;
27428;SDS011;14881;48.092;11.574;2022-08-25T02:19:18;7.75;;;7.05;;
27428;SDS011;14881;48.092;11.574;2022-08-25T02:21:47;8.30;;;7.03;;
27428;SDS011;14881;48.092;11.574;2022-08-25T02:24:17;8.27;;;7.30;;
27428;SDS011;14881;48.092;11.574;2022-08-25T02:26:45;7.85;;;7.00;;
27428;SDS011;14881;48.092;11.574;2022-08-25T02:29:13;8.18;;;7.18;;
27428;SDS011;14881;48.092;11.574;2022-08-25T02:31:42;8.32;;;7.47;;
27428;SDS011;14881;48.092;11.574;2022-08-25T02:34:10;8.63;;;6.90;;
27428;SDS011;14881;48.092;11.574;2022-08-25T02:36:40;9.68;;;7.25;;
27428;SDS011;14881;48.092;11.574;2022-08-25T02:39:08;9.00;;;7.32;;
27428;SDS011;14881;48.092;11.574;2022-08-25T02:41:38;7.97;;;7.18;;
27428;SDS011;14881;48.092;11.574;2022-08-25T02:44:07;9.77;;;7.55;;
27428;SDS011;14881;48.092;11.574;2022-08-25T02:46:36;9.18;;;7.18;;
27428;SDS011;14881;48.092;11.574;2022-08-25T02:49:04;8.35;;;7.35;;
27428;SDS011;14881;48.092;11.574;2022-08-25T02:51:33;10.13;;;7.70;;
27428;SDS011;14881;48.092;11.574;2022-08-25T02:54:01;12.38;;;7.93;;
27428;SDS011;14881;48.092;11.574;2022-08-25T02:56:30;8.98;;;7.47;;
27428;SDS011;14881;48.092;11.574;2022-08-25T02:59:00;9.18;;;7.80;;
27428;SDS011;14881;48.092;11.574;2022-08-25T03:01:28;9.02;;;7.82;;
27428;SDS011;14881;48.092;11.574;2022-08-25T03:03:56;8.45;;;7.55;;
27428;SDS011;14881;48.092;11.574;2022-08-25T03:06:25;8.05;;;7.25;;
27428;SDS011;14881;48.092;11.574;2022-08-25T03:08:53;9.65;;;7.70;;
27428;SDS011;14881;48.092;11.574;2022-08-25T03:11:21;11.35;;;8.25;;
27428;SDS011;14881;48.092;11.574;2022-08-25T03:13:51;8.93;;;7.43;;
27428;SDS011;14881;48.092;11.574;2022-08-25T03:16:20;8.63;;;7.72;;
27428;SDS011;14881;48.092;11.574;2022-08-25T03:18:53;8.93;;;6.38;;
27428;SDS011;14881;48.092;11.574;2022-08-25T03:21:21;9.85;;;7.25;;
27428;SDS011;14881;48.092;11.574;2022-08-25T03:23:49;9.02;;;6.80;;
27428;SDS011;14881;48.092;11.574;2022-08-25T03:26:17;9.15;;;6.82;;
27428;SDS011;14881;48.092;11.574;2022-08-25T03:29:02;8.32;;;6.63;;
27428;SDS011;14881;48.092;11.574;2022-08-25T03:31:32;8.55;;;7.15;;
27428;SDS011;14881;48.092;11.574;2022-08-25T03:34:02;8.80;;;7.78;;
27428;SDS011;14881;48.092;11.574;2022-08-25T03:36:29;8.93;;;7.40;;
27428;SDS011;14881;48.092;11.574;2022-08-25T03:38:57;14.13;;;9.15;;
27428;SDS011;14881;48.092;11.574;2022-08-25T03:41:26;14.30;;;9.50;;
27428;SDS011;14881;48.092;11.574;2022-08-25T03:43:55;10.77;;;9.27;;
27428;SDS011;14881;48.092;11.574;2022-08-25T03:46:24;11.95;;;9.70;;
27428;SDS011;14881;48.092;11.574;2022-08-25T03:48:55;11.18;;;8.15;;
27428;SDS011;14881;48.092;11.574;2022-08-25T03:51:24;11.90;;;8.48;;
27428;SDS011;14881;48.092;11.574;2022-08-25T03:53:54;8.48;;;7.60;;
27428;SDS011;14881;48.092;11.574;2022-08-25T03:56:23;10.40;;;8.18;;
27428;SDS011;14881;48.092;11.574;2022-08-25T03:58:52;10.00;;;8.80;;
27428;SDS011;14881;48.092;11.574;2022-08-25T04:01:20;11.43;;;8.38;;
27428;SDS011;14881;48.092;11.574;2022-08-25T04:03:48;8.98;;;8.07;;
27428;SDS011;14881;48.092;11.574;2022-08-25T04:06:17;10.52;;;8.20;;
27428;SDS011;14881;48.092;11.574;2022-08-25T04:08:46;12.77;;;8.73;;
27428;SDS011;14881;48.092;11.574;2022-08-25T04:11:18;11.10;;;8.73;;
27428;SDS011;14881;48.092;11.574;2022-08-25T04:13:48;11.00;;;8.00;;
27428;SDS011;14881;48.092;11.574;2022-08-25T04:16:18;8.20;;;7.45;;
27428;SDS011;14881;48.092;11.574;2022-08-25T04:18:48;9.77;;;7.65;;
27428;SDS011;14881;48.092;11.574;2022-08-25T04:21:18;9.77;;;8.13;;
27428;SDS011;14881;48.092;11.574;2022-08-25T04:23:48;8.90;;;7.90;;
27428;SDS011;14881;48.092;11.574;2022-08-25T04:26:17;10.00;;;8.07;;
27428;SDS011;14881;48.092;11.574;2022-08-25T04:28:47;11.55;;;8.68;;
27428;SDS011;14881;48.092;11.574;2022-08-25T04:31:16;13.27;;;8.50;;
27428;SDS011;14881;48.092;11.574;2022-08-25T04:33:45;10.68;;;8.98;;
27428;SDS011;14881;48.092;11.574;2022-08-25T04:36:14;11.15;;;8.80;;
27428;SDS011;14881;48.092;11.574;2022-08-25T04:38:45;10.95;;;8.75;;
27428;SDS011;14881;48.092;11.574;2022-08-25T04:41:15;12.93;;;8.45;;
27428;SDS011;14881;48.092;11.574;2022-08-25T04:43:44;9.63;;;8.38;;
27428;SDS011;14881;48.092;11.574;2022-08-25T04:46:14;11.73;;;8.38;;
27428;SDS011;14881;48.092;11.574;2022-08-25T04:48:45;10.05;;;8.38;;
27428;SDS011;14881;48.092;11.574;2022-08-25T04:51:14;10.05;;;7.97;;
27428;SDS011;14881;48.092;11.574;2022-08-25T04:53:45;11.57;;;8.20;;
27428;SDS011;14881;48.092;11.574;2022-08-25T04:56:14;10.75;;;8.52;;
27428;SDS011;14881;48.092;11.574;2022-08-25T04:58:43;11.57;;;9.23;;
27428;SDS011;14881;48.092;11.574;2022-08-25T05:01:13;12.35;;;9.25;;
27428;SDS011;14881;48.092;11.574;2022-08-25T05:03:44;10.90;;;8.70;;
27428;SDS011;14881;48.092;11.574;2022-08-25T05:06:13;12.88;;;8.85;;
27428;SDS011;14881;48.092;11.574;2022-08-25T05:08:41;14.48;;;8.90;;
27428;SDS011;14881;48.092;11.574;2022-08-25T05:11:13;12.50;;;9.18;;
27428;SDS011;14881;48.092;11.574;2022-08-25T05:13:43;13.00;;;10.65;;
27428;SDS011;14881;48.092;11.574;2022-08-25T05:16:17;11.65;;;8.95;;
27428;SDS011;14881;48.092;11.574;2022-08-25T05:18:46;11.85;;;8.65;;
27428;SDS011;14881;48.092;11.574;2022-08-25T05:21:14;9.25;;;8.23;;
27428;SDS011;14881;48.092;11.574;2022-08-25T05:23:44;9.88;;;8.07;;
27428;SDS011;14881;48.092;11.574;2022-08-25T05:26:14;10.68;;;8.85;;
27428;SDS011;14881;48.092;11.574;2022-08-25T05:28:46;9.95;;;8.52;;
27428;SDS011;14881;48.092;11.574;2022-08-25T05:31:16;9.82;;;8.45;;
27428;SDS011;14881;48.092;11.574;2022-08-25T05:33:45;9.30;;;8.40;;
27428;SDS011;14881;48.092;11.574;2022-08-25T05:36:13;11.75;;;8.00;;
27428;SDS011;14881;48.092;11.574;2022-08-25T05:38:42;10.25;;;8.48;;
27428;SDS011;14881;48.092;11.574;2022-08-25T05:41:10;14.02;;;9.15;;
27428;SDS011;14881;48.092;11.574;2022-08-25T05:43:43;11.65;;;8.02;;
27428;SDS011;14881;48.092;11.574;2022-08-25T05:46:11;9.50;;;8.23;;
27428;SDS011;14881;48.092;11.574;2022-08-25T05:48:39;9.48;;;8.10;;
27428;SDS011;14881;48.092;11.574;2022-08-25T05:51:08;8.15;;;7.35;;
27428;SDS011;14881;48.092;11.574;2022-08-25T05:53:38;9.60;;;7.72;;
27428;SDS011;14881;48.092;11.574;2022-08-25T05:56:07;7.72;;;6.93;;
27428;SDS011;14881;48.092;11.574;2022-08-25T05:58:36;12.38;;;7.75;;
27428;SDS011;14881;48.092;11.574;2022-08-25T06:01:05;8.65;;;7.63;;
27428;SDS011;14881;48.092;11.574;2022-08-25T06:03:52;9.82;;;8.65;;
27428;SDS011;14881;48.092;11.574;2022-08-25T06:06:21;9.50;;;8.50;;
27428;SDS011;14881;48.092;11.574;2022-08-25T06:08:49;11.65;;;10.25;;
27428;SDS011;14881;48.092;11.574;2022-08-25T06:11:18;12.05;;;10.73;;
27428;SDS011;14881;48.092;11.574;2022-08-25T06:13:45;16.65;;;13.68;;
27428;SDS011;14881;48.092;11.574;2022-08-25T06:16:15;18.98;;;13.85;;
27428;SDS011;14881;48.092;11.574;2022-08-25T06:18:43;17.85;;;13.20;;
27428;SDS011;14881;48.092;11.574;2022-08-25T06:21:12;23.02;;;17.63;;
27428;SDS011;14881;48.092;11.574;2022-08-25T06:23:43;18.65;;;15.52;;
27428;SDS011;14881;48.092;11.574;2022-08-25T06:26:11;25.38;;;16.40;;
27428;SDS011;14881;48.092;11.574;2022-08-25T06:28:46;22.15;;;15.25;;
27428;SDS011;14881;48.092;11.574;2022-08-25T06:31:16;20.85;;;15.02;;
27428;SDS011;14881;48.092;11.574;2022-08-25T06:33:45;19.77;;;14.23;;
27428;SDS011;14881;48.092;11.574;2022-08-25T06:36:13;19.73;;;15.18;;
27428;SDS011;14881;48.092;11.574;2022-08-25T06:38:41;20.52;;;16.30;;
27428;SDS011;14881;48.092;11.574;2022-08-25T06:41:09;17.35;;;14.20;;
27428;SDS011;14881;48.092;11.574;2022-08-25T06:43:37;18.25;;;14.57;;
27428;SDS011;14881;48.092;11.574;2022-08-25T06:46:14;19.85;;;15.07;;
27428;SDS011;14881;48.092;11.574;2022-08-25T06:48:46;21.10;;;15.20;;
27428;SDS011;14881;48.092;11.574;2022-08-25T06:51:15;18.17;;;15.02;;
27428;SDS011;14881;48.092;11.574;2022-08-25T06:53:45;17.42;;;13.40;;
27428;SDS011;14881;48.092;11.574;2022-08-25T06:56:14;16.98;;;14.15;;
27428;SDS011;14881;48.092;11.574;2022-08-25T06:58:44;14.95;;;12.80;;
27428;SDS011;14881;48.092;11.574;2022-08-25T07:01:14;18.02;;;14.20;;
27428;SDS011;14881;48.092;11.574;2022-08-25T07:03:46;17.63;;;13.63;;
27428;SDS011;14881;48.092;11.574;2022-08-25T07:06:17;19.58;;;14.65;;
27428;SDS011;14881;48.092;11.574;2022-08-25T07:08:46;16.63;;;12.80;;
27428;SDS011;14881;48.092;11.574;2022-08-25T07:11:14;17.20;;;13.32;;
27428;SDS011;14881;48.092;11.574;2022-08-25T07:13:43;15.90;;;11.75;;
27428;SDS011;14881;48.092;11.574;2022-08-25T07:16:11;11.80;;;10.32;;
27428;SDS011;14881;48.092;11.574;2022-08-25T07:18:42;15.73;;;12.23;;
27428;SDS011;14881;48.092;11.574;2022-08-25T07:21:10;13.32;;;10.43;;
27428;SDS011;14881;48.092;11.574;2022-08-25T07:23:39;13.20;;;11.02;;
27428;SDS011;14881;48.092;11.574;2022-08-25T07:26:08;12.65;;;10.93;;
27428;SDS011;14881;48.092;11.574;2022-08-25T07:28:57;17.90;;;10.20;;
27428;SDS011;14881;48.092;11.574;2022-08-25T07:31:25;12.00;;;10.45;;
27428;SDS011;14881;48.092;11.574;2022-08-25T07:33:56;11.02;;;9.75;;
27428;SDS011;14881;48.092;11.574;2022-08-25T07:36:42;10.05;;;8.80;;
27428;SDS011;14881;48.092;11.574;2022-08-25T07:39:10;13.95;;;9.93;;
27428;SDS011;14881;48.092;11.574;2022-08-25T07:41:39;12.50;;;10.48;;
27428;SDS011;14881;48.092;11.574;2022-08-25T07:44:08;12.85;;;10.02;;
27428;SDS011;14881;48.092;11.574;2022-08-25T07:46:38;13.13;;;10.82;;
27428;SDS011;14881;48.092;11.574;2022-08-25T07:49:09;11.80;;;9.77;;
27428;SDS011;14881;48.092;11.574;2022-08-25T07:51:42;12.15;;;9.65;;
27428;SDS011;14881;48.092;11.574;2022-08-25T07:54:30;9.60;;;8.15;;
27428;SDS011;14881;48.092;11.574;2022-08-25T07:57:00;10.63;;;9.07;;
27428;SDS011;14881;48.092;11.574;2022-08-25T07:59:28;10.00;;;9.02;;
27428;SDS011;14881;48.092;11.574;2022-08-25T08:02:05;9.55;;;8.45;;
27428;SDS011;14881;48.092;11.574;2022-08-25T08:04:35;9.57;;;8.60;;
27428;SDS011;14881;48.092;11.574;2022-08-25T08:07:06;12.68;;;9.25;;
27428;SDS011;14881;48.092;11.574;2022-08-25T08:09:37;9.65;;;8.50;;
27428;SDS011;14881;48.092;11.574;2022-08-25T08:12:05;13.32;;;8.70;;
27428;SDS011;14881;48.092;11.574;2022-08-25T08:14:34;9.43;;;8.50;;
27428;SDS011;14881;48.092;11.574;2022-08-25T08:17:10;9.60;;;8.13;;
27428;SDS011;14881;48.092;11.574;2022-08-25T08:19:40;10.98;;;8.02;;
27428;SDS011;14881;48.092;11.574;2022-08-25T08:22:11;9.00;;;8.10;;
27428;SDS011;14881;48.092;11.574;2022-08-25T08:24:41;9.70;;;7.18;;
27428;SDS011;14881;48.092;11.574;2022-08-25T08:27:21;11.65;;;6.80;;
27428;SDS011;14881;48.092;11.574;2022-08-25T08:29:49;10.07;;;7.38;;
27428;SDS011;14881;48.092;11.574;2022-08-25T08:32:18;8.65;;;7.40;;
27428;SDS011;14881;48.092;11.574;2022-08-25T08:35:02;7.97;;;7.18;;
27428;SDS011;14881;48.092;11.574;2022-08-25T08:37:33;11.93;;;7.60;;
27428;SDS011;14881;48.092;11.574;2022-08-25T08:40:06;9.82;;;6.80;;
27428;SDS011;14881;48.092;11.574;2022-08-25T08:42:42;8.88;;;7.97;;
27428;SDS011;14881;48.092;11.574;2022-08-25T08:45:23;9.57;;;8.57;;
27428;SDS011;14881;48.092;11.574;2022-08-25T08:48:02;10.77;;;8.95;;
27428;SDS011;14881;48.092;11.574;2022-08-25T08:50:53;10.50;;;8.13;;
27428;SDS011;14881;48.092;11.574;2022-08-25T08:53:37;10.20;;;8.52;;
27428;SDS011;14881;48.092;11.574;2022-08-25T08:56:12;9.25;;;8.10;;
27428;SDS011;14881;48.092;11.574;2022-08-25T08:58:45;9.02;;;8.07;;
27428;SDS011;14881;48.092;11.574;2022-08-25T09:01:17;12.95;;;9.45;;
27428;SDS011;14881;48.092;11.574;2022-08-25T09:03:53;10.18;;;7.00;;
27428;SDS011;14881;48.092;11.574;2022-08-25T09:06:29;9.43;;;7.47;;
27428;SDS011;14881;48.092;11.574;2022-08-25T09:09:01;8.02;;;6.40;;
27428;SDS011;14881;48.092;11.574;2022-08-25T09:11:40;6.65;;;5.97;;
27428;SDS011;14881;48.092;11.574;2022-08-25T09:14:20;7.95;;;7.13;;
27428;SDS011;14881;48.092;11.574;2022-08-25T09:16:58;8.32;;;6.78;;
27428;SDS011;14881;48.092;11.574;2022-08-25T09:19:31;8.88;;;6.68;;
27428;SDS011;14881;48.092;11.574;2022-08-25T09:22:12;8.25;;;6.72;;
27428;SDS011;14881;48.092;11.574;2022-08-25T09:25:02;6.45;;;5.75;;
27428;SDS011;14881;48.092;11.574;2022-08-25T09:27:39;10.95;;;6.38;;
27428;SDS011;14881;48.092;11.574;2022-08-25T09:30:14;6.38;;;5.78;;
27428;SDS011;14881;48.092;11.574;2022-08-25T09:32:44;11.18;;;6.97;;
27428;SDS011;14881;48.092;11.574;2022-08-25T09:35:24;9.00;;;6.87;;
27428;SDS011;14881;48.092;11.574;2022-08-25T09:37:56;7.65;;;6.90;;
27428;SDS011;14881;48.092;11.574;2022-08-25T09:40:26;8.88;;;6.32;;
27428;SDS011;14881;48.092;11.574;2022-08-25T09:42:55;7.60;;;6.10;;
27428;SDS011;14881;48.092;11.574;2022-08-25T09:45:36;8.77;;;6.10;;
27428;SDS011;14881;48.092;11.574;2022-08-25T09:48:21;6.45;;;5.85;;
27428;SDS011;14881;48.092;11.574;2022-08-25T09:50:52;8.18;;;6.18;;
27428;SDS011;14881;48.092;11.574;2022-08-25T09:53:26;6.78;;;5.90;;
27428;SDS011;14881;48.092;11.574;2022-08-25T09:56:00;6.10;;;5.55;;
27428;SDS011;14881;48.092;11.574;2022-08-25T09:58:32;8.50;;;5.45;;
27428;SDS011;14881;48.092;11.574;2022-08-25T10:01:04;6.28;;;5.63;;
27428;SDS011;14881;48.092;11.574;2022-08-25T10:03:52;6.05;;;5.50;;
27428;SDS011;14881;48.092;11.574;2022-08-25T10:06:29;7.82;;;5.80;;
27428;SDS011;14881;48.092;11.574;2022-08-25T10:09:04;5.90;;;5.35;;
27428;SDS011;14881;48.092;11.574;2022-08-25T10:11:36;7.25;;;6.22;;
27428;SDS011;14881;48.092;11.574;2022-08-25T10:14:16;7.10;;;6.15;;
27428;SDS011;14881;48.092;11.574;2022-08-25T10:16:47;9.23;;;6.00;;
27428;SDS011;14881;48.092;11.574;2022-08-25T10:19:23;7.00;;;5.78;;
27428;SDS011;14881;48.092;11.574;2022-08-25T10:22:03;6.70;;;5.97;;
27428;SDS011;14881;48.092;11.574;2022-08-25T10:24:37;8.35;;;5.47;;
27428;SDS011;14881;48.092;11.574;2022-08-25T10:27:14;5.95;;;5.35;;
27428;SDS011;14881;48.092;11.574;2022-08-25T10:29:56;6.50;;;5.50;;
27428;SDS011;14881;48.092;11.574;2022-08-25T10:35:40;7.18;;;5.20;;
27428;SDS011;14881;48.092;11.574;2022-08-25T10:38:21;5.63;;;4.97;;
27428;SDS011;14881;48.092;11.574;2022-08-25T10:43:38;5.60;;;5.03;;
27428;SDS011;14881;48.092;11.574;2022-08-25T10:46:15;6.72;;;5.68;;
27428;SDS011;14881;48.092;11.574;2022-08-25T10:49:00;6.97;;;4.97;;
27428;SDS011;14881;48.092;11.574;2022-08-25T10:51:32;5.03;;;4.55;;
27428;SDS011;14881;48.092;11.574;2022-08-25T10:54:19;5.47;;;4.97;;
27428;SDS011;14881;48.092;11.574;2022-08-25T10:56:59;7.70;;;5.20;;
27428;SDS011;14881;48.092;11.574;2022-08-25T10:59:39;5.88;;;5.28;;
27428;SDS011;14881;48.092;11.574;2022-08-25T11:05:25;6.88;;;4.20;;
27428;SDS011;14881;48.092;11.574;2022-08-25T11:07:59;6.03;;;3.78;;
27428;SDS011;14881;48.092;11.574;2022-08-25T11:10:35;5.63;;;3.92;;
27428;SDS011;14881;48.092;11.574;2022-08-25T11:13:11;7.50;;;3.97;;
27428;SDS011;14881;48.092;11.574;2022-08-25T11:15:49;5.60;;;4.25;;
27428;SDS011;14881;48.092;11.574;2022-08-25T11:18:43;5.60;;;4.65;;
27428;SDS011;14881;48.092;11.574;2022-08-25T11:21:17;6.03;;;5.25;;
27428;SDS011;14881;48.092;11.574;2022-08-25T11:23:51;5.10;;;4.47;;
27428;SDS011;14881;48.092;11.574;2022-08-25T11:26:26;6.35;;;4.93;;
27428;SDS011;14881;48.092;11.574;2022-08-25T11:29:05;6.60;;;4.78;;
27428;SDS011;14881;48.092;11.574;2022-08-25T11:31:39;8.55;;;5.10;;
27428;SDS011;14881;48.092;11.574;2022-08-25T11:34:16;11.05;;;5.80;;
27428;SDS011;14881;48.092;11.574;2022-08-25T11:36:48;8.05;;;4.93;;
27428;SDS011;14881;48.092;11.574;2022-08-25T11:39:21;6.13;;;5.00;;
27428;SDS011;14881;48.092;11.574;2022-08-25T11:42:03;7.70;;;5.53;;
27428;SDS011;14881;48.092;11.574;2022-08-25T11:44:45;7.20;;;5.20;;
27428;SDS011;14881;48.092;11.574;2022-08-25T11:47:30;5.93;;;5.32;;
27428;SDS011;14881;48.092;11.574;2022-08-25T11:50:08;5.60;;;5.00;;
27428;SDS011;14881;48.092;11.574;2022-08-25T11:52:56;6.68;;;5.40;;
27428;SDS011;14881;48.092;11.574;2022-08-25T11:55:29;6.32;;;5.00;;
27428;SDS011;14881;48.092;11.574;2022-08-25T12:01:09;8.90;;;6.03;;
27428;SDS011;14881;48.092;11.574;2022-08-25T12:04:13;6.82;;;5.82;;
27428;SDS011;14881;48.092;11.574;2022-08-25T12:07:17;7.93;;;6.40;;
27428;SDS011;14881;48.092;11.574;2022-08-25T12:12:57;8.35;;;5.72;;
27428;SDS011;14881;48.092;11.574;2022-08-25T12:15:32;6.38;;;5.25;;
27428;SDS011;14881;48.092;11.574;2022-08-25T12:18:37;6.72;;;5.22;;
27428;SDS011;14881;48.092;11.574;2022-08-25T12:21:13;6.47;;;5.38;;
27428;SDS011;14881;48.092;11.574;2022-08-25T12:23:42;6.50;;;5.80;;
27428;SDS011;14881;48.092;11.574;2022-08-25T12:26:19;8.45;;;5.65;;
27428;SDS011;14881;48.092;11.574;2022-08-25T12:28:59;7.43;;;5.63;;
27428;SDS011;14881;48.092;11.574;2022-08-25T12:34:39;11.05;;;6.00;;
27428;SDS011;14881;48.092;11.574;2022-08-25T12:37:22;8.60;;;5.55;;
27428;SDS011;14881;48.092;11.574;2022-08-25T12:39:56;9.77;;;6.57;;
27428;SDS011;14881;48.092;11.574;2022-08-25T12:42:29;6.20;;;5.60;;
27428;SDS011;14881;48.092;11.574;2022-08-25T12:45:16;7.65;;;5.70;;
27428;SDS011;14881;48.092;11.574;2022-08-25T12:51:07;8.25;;;6.65;;
27428;SDS011;14881;48.092;11.574;2022-08-25T12:53:45;6.80;;;5.50;;
27428;SDS011;14881;48.092;11.574;2022-08-25T12:56:18;9.32;;;5.38;;
27428;SDS011;14881;48.092;11.574;2022-08-25T12:58:54;6.22;;;5.43;;
27428;SDS011;14881;48.092;11.574;2022-08-25T13:01:30;8.70;;;5.93;;
27428;SDS011;14881;48.092;11.574;2022-08-25T13:04:15;6.93;;;5.80;;
27428;SDS011;14881;48.092;11.574;2022-08-25T13:07:09;9.05;;;5.93;;
27428;SDS011;14881;48.092;11.574;2022-08-25T13:10:06;6.60;;;5.55;;
27428;SDS011;14881;48.092;11.574;2022-08-25T13:12:45;11.18;;;7.28;;
27428;SDS011;14881;48.092;11.574;2022-08-25T13:15:24;11.73;;;7.25;;
27428;SDS011;14881;48.092;11.574;2022-08-25T13:18:15;11.52;;;7.03;;
27428;SDS011;14881;48.092;11.574;2022-08-25T13:20:46;13.27;;;6.65;;
27428;SDS011;14881;48.092;11.574;2022-08-25T13:23:16;7.68;;;6.32;;
27428;SDS011;14881;48.092;11.574;2022-08-25T13:25:56;10.85;;;7.47;;
27428;SDS011;14881;48.092;11.574;2022-08-25T13:28:27;7.70;;;6.78;;
27428;SDS011;14881;48.092;11.574;2022-08-25T13:31:01;9.95;;;7.32;;
27428;SDS011;14881;48.092;11.574;2022-08-25T13:33:31;10.13;;;7.32;;
27428;SDS011;14881;48.092;11.574;2022-08-25T13:36:01;10.77;;;7.82;;
27428;SDS011;14881;48.092;11.574;2022-08-25T13:38:47;14.20;;;7.57;;
27428;SDS011;14881;48.092;11.574;2022-08-25T13:41:20;9.07;;;7.18;;
27428;SDS011;14881;48.092;11.574;2022-08-25T13:43:54;12.77;;;7.60;;
27428;SDS011;14881;48.092;11.574;2022-08-25T13:46:27;11.57;;;7.03;;
27428;SDS011;14881;48.092;11.574;2022-08-25T13:49:00;14.40;;;8.05;;
27428;SDS011;14881;48.092;11.574;2022-08-25T13:51:31;10.57;;;7.88;;
27428;SDS011;14881;48.092;11.574;2022-08-25T13:54:00;17.15;;;8.40;;
27428;SDS011;14881;48.092;11.574;2022-08-25T13:56:33;15.38;;;7.97;;
27428;SDS011;14881;48.092;11.574;2022-08-25T13:59:18;9.70;;;7.80;;
27428;SDS011;14881;48.092;11.574;2022-08-25T14:01:49;10.48;;;7.47;;
27428;SDS011;14881;48.092;11.574;2022-08-25T14:04:23;15.35;;;8.68;;
27428;SDS011;14881;48.092;11.574;2022-08-25T14:07:07;11.23;;;7.82;;
27428;SDS011;14881;48.092;11.574;2022-08-25T14:09:43;10.18;;;7.85;;
27428;SDS011;14881;48.092;11.574;2022-08-25T14:14:58;17.38;;;7.80;;
27428;SDS011;14881;48.092;11.574;2022-08-25T14:17:29;12.45;;;7.20;;
27428;SDS011;14881;48.092;11.574;2022-08-25T14:20:06;13.77;;;8.05;;
27428;SDS011;14881;48.092;11.574;2022-08-25T14:22:47;11.95;;;7.35;;
27428;SDS011;14881;48.092;11.574;2022-08-25T14:25:23;13.40;;;8.15;;
27428;SDS011;14881;48.092;11.574;2022-08-25T14:27:56;11.18;;;8.13;;
27428;SDS011;14881;48.092;11.574;2022-08-25T14:30:42;10.77;;;6.45;;
27428;SDS011;14881;48.092;11.574;2022-08-25T14:33:17;12.18;;;7.80;;
27428;SDS011;14881;48.092;11.574;2022-08-25T14:35:49;11.75;;;7.20;;
27428;SDS011;14881;48.092;11.574;2022-08-25T14:38:20;9.25;;;7.10;;
27428;SDS011;14881;48.092;11.574;2022-08-25T14:40:50;12.55;;;7.80;;
27428;SDS011;14881;48.092;11.574;2022-08-25T14:43:20;12.55;;;7.72;;
27428;SDS011;14881;48.092;11.574;2022-08-25T14:45:56;12.73;;;7.22;;
27428;SDS011;14881;48.092;11.574;2022-08-25T14:48:28;13.10;;;8.00;;
27428;SDS011;14881;48.092;11.574;2022-08-25T14:50:59;18.00;;;8.02;;
27428;SDS011;14881;48.092;11.574;2022-08-25T14:53:27;16.98;;;8.30;;
27428;SDS011;14881;48.092;11.574;2022-08-25T14:55:55;14.60;;;7.72;;
27428;SDS011;14881;48.092;11.574;2022-08-25T14:58:26;12.90;;;8.35;;
27428;SDS011;14881;48.092;11.574;2022-08-25T15:00:59;13.15;;;8.52;;
27428;SDS011;14881;48.092;11.574;2022-08-25T15:03:28;10.45;;;7.22;;
27428;SDS011;14881;48.092;11.574;2022-08-25T15:05:58;15.85;;;8.30;;
27428;SDS011;14881;48.092;11.574;2022-08-25T15:08:29;12.15;;;7.25;;
27428;SDS011;14881;48.092;11.574;2022-08-25T15:11:14;11.05;;;7.22;;
27428;SDS011;14881;48.092;11.574;2022-08-25T15:13:44;10.57;;;7.45;;
27428;SDS011;14881;48.092;11.574;2022-08-25T15:16:16;21.65;;;8.90;;
27428;SDS011;14881;48.092;11.574;2022-08-25T15:18:48;12.70;;;7.80;;
27428;SDS011;14881;48.092;11.574;2022-08-25T15:21:18;12.98;;;8.40;;
27428;SDS011;14881;48.092;11.574;2022-08-25T15:23:46;19.98;;;8.82;;
27428;SDS011;14881;48.092;11.574;2022-08-25T15:26:21;14.85;;;9.02;;